TAF KOLS
KOLS 072320Z 0800/0824 20010G21KT P6SM SKC FM080300 14006KT P6SM SCT200=
METAR KOLS
WC KOLS
WS KOLS
WV KOLS